createdAt,value
2019-01-17T00:01:00.770Z,4.93
2019-01-17T00:02:08.987Z,4.93
2019-01-17T00:03:29.874Z,4.81
2019-01-17T00:04:43.916Z,4.70
2019-01-17T00:05:54.480Z,4.69
2019-01-17T00:06:59.540Z,4.70
2019-01-17T00:08:07.387Z,4.75
2019-01-17T00:09:24.241Z,4.77
2019-01-17T00:10:34.913Z,4.74
2019-01-17T00:11:40.052Z,4.67
2019-01-17T00:12:45.133Z,4.71
2019-01-17T00:14:04.892Z,4.70
2019-01-17T00:15:16.268Z,4.69
2019-01-17T00:16:24.050Z,4.70
2019-01-17T00:17:29.187Z,4.71
2019-01-17T00:18:43.135Z,4.72
2019-01-17T00:20:03.385Z,4.74
2019-01-17T00:21:23.257Z,4.78
2019-01-17T00:22:31.041Z,4.71
2019-01-17T00:23:39.061Z,4.71
2019-01-17T00:24:44.188Z,4.74
2019-01-17T00:26:07.085Z,4.74
2019-01-17T00:27:28.346Z,4.65
2019-01-17T00:28:33.406Z,4.61
2019-01-17T00:29:47.342Z,4.49
2019-01-17T00:30:55.468Z,4.50
2019-01-17T00:32:09.763Z,4.51
2019-01-17T00:33:29.801Z,4.52
2019-01-17T00:34:43.875Z,4.64
2019-01-17T00:36:00.569Z,4.70
2019-01-17T00:37:08.993Z,4.77
2019-01-17T00:38:14.210Z,4.84
2019-01-17T00:39:37.015Z,4.87
2019-01-17T00:40:48.208Z,4.90
2019-01-17T00:41:56.111Z,4.90
2019-01-17T00:43:18.547Z,4.92
2019-01-17T00:44:35.509Z,4.93
2019-01-17T00:45:40.635Z,4.93
2019-01-17T00:47:01.494Z,4.94
2019-01-17T00:48:09.281Z,4.91
2019-01-17T00:49:20.059Z,4.88
2019-01-17T00:50:27.984Z,4.84
2019-01-17T00:51:36.030Z,4.81
2019-01-17T00:52:59.142Z,4.80
2019-01-17T00:54:22.253Z,4.81
2019-01-17T00:55:43.346Z,4.76
2019-01-17T00:57:02.999Z,4.84
2019-01-17T00:58:10.746Z,4.88
2019-01-17T00:59:32.060Z,4.94
2019-01-17T01:00:53.249Z,4.88
2019-01-17T01:02:01.018Z,4.89
2019-01-17T01:03:18.135Z,4.89
2019-01-17T01:04:29.158Z,4.85
2019-01-17T01:05:40.218Z,4.82
2019-01-17T01:06:45.368Z,4.69
2019-01-17T01:08:06.608Z,4.71
2019-01-17T01:09:26.875Z,4.73
2019-01-17T01:10:31.945Z,4.59
2019-01-17T01:11:45.774Z,4.66
2019-01-17T01:12:53.488Z,4.71
2019-01-17T01:14:14.700Z,4.71
2019-01-17T01:15:35.464Z,4.70
2019-01-17T01:16:59.670Z,4.79
2019-01-17T01:18:07.582Z,4.60
2019-01-17T01:19:15.267Z,4.60
2019-01-17T01:20:22.897Z,4.70
2019-01-17T01:21:28.044Z,4.74
2019-01-17T01:22:35.975Z,4.74
2019-01-17T01:23:55.835Z,4.72
2019-01-17T01:25:20.038Z,4.60
2019-01-17T01:26:25.164Z,4.55
2019-01-17T01:27:30.281Z,4.65
2019-01-17T01:28:38.008Z,4.60
2019-01-17T01:29:55.048Z,4.66
2019-01-17T01:31:02.960Z,4.72
2019-01-17T01:32:08.090Z,4.78
2019-01-17T01:33:29.212Z,4.80
2019-01-17T01:34:49.423Z,4.84
2019-01-17T01:35:57.291Z,4.88
2019-01-17T01:37:10.910Z,4.88
2019-01-17T01:38:21.689Z,4.88
2019-01-17T01:39:29.775Z,4.90
2019-01-17T01:40:37.561Z,4.93
2019-01-17T01:41:45.755Z,4.92
2019-01-17T01:42:53.704Z,4.91
2019-01-17T01:43:58.785Z,4.86
2019-01-17T01:45:09.856Z,4.71
2019-01-17T01:46:17.365Z,4.71
2019-01-17T01:47:22.504Z,4.65
2019-01-17T01:48:30.580Z,4.62
2019-01-17T01:49:35.671Z,4.59
2019-01-17T01:50:43.444Z,4.58
2019-01-17T01:52:03.612Z,4.60
2019-01-17T01:53:07.193Z,4.64
2019-01-17T01:54:10.809Z,4.73
2019-01-17T01:55:14.328Z,4.69
2019-01-17T01:56:17.745Z,4.68
2019-01-17T01:57:21.189Z,4.73
2019-01-17T01:58:24.631Z,4.73
2019-01-17T01:59:28.094Z,4.64
2019-01-17T02:00:31.551Z,4.66
2019-01-17T02:01:35.232Z,4.69
2019-01-17T02:02:38.739Z,4.73
2019-01-17T02:03:42.238Z,4.76
2019-01-17T02:04:45.721Z,4.80
2019-01-17T02:05:49.159Z,4.83
2019-01-17T02:06:52.687Z,4.88
2019-01-17T02:07:56.254Z,4.90
2019-01-17T02:08:59.829Z,4.89
2019-01-17T02:10:04.405Z,4.89
2019-01-17T02:11:07.910Z,4.88
2019-01-17T02:12:11.483Z,4.86
2019-01-17T02:13:15.061Z,4.88
2019-01-17T02:14:19.429Z,4.89
2019-01-17T02:15:23.024Z,4.85
2019-01-17T02:16:26.468Z,4.85
2019-01-17T02:17:29.974Z,4.87
2019-01-17T02:18:33.487Z,4.89
2019-01-17T02:19:36.905Z,4.89
2019-01-17T02:20:41.003Z,4.88
2019-01-17T02:21:44.516Z,4.87
2019-01-17T02:22:48.055Z,4.87
2019-01-17T02:23:51.571Z,4.88
2019-01-17T02:24:55.015Z,4.86
2019-01-17T02:25:58.530Z,4.83
2019-01-17T02:27:02.034Z,4.81
2019-01-17T02:28:05.639Z,4.78
2019-01-17T02:29:09.056Z,4.76
2019-01-17T02:30:12.957Z,4.76
2019-01-17T02:31:16.470Z,4.78
2019-01-17T02:32:20.051Z,4.77
2019-01-17T02:33:23.495Z,4.77
2019-01-17T02:34:26.927Z,4.75
2019-01-17T02:35:30.477Z,4.71
2019-01-17T02:36:33.976Z,4.72
2019-01-17T02:37:37.506Z,4.74
2019-01-17T02:38:40.930Z,4.75
2019-01-17T02:39:44.378Z,4.76
2019-01-17T02:40:47.826Z,4.76
2019-01-17T02:41:51.331Z,4.77
2019-01-17T02:42:54.750Z,4.76
2019-01-17T02:43:58.268Z,4.73
2019-01-17T02:45:01.713Z,4.74
2019-01-17T02:46:05.502Z,4.73
2019-01-17T02:47:09.338Z,4.72
2019-01-17T02:48:12.824Z,4.73
2019-01-17T02:49:16.314Z,4.73
2019-01-17T02:50:19.748Z,4.72
2019-01-17T02:51:23.189Z,4.72
2019-01-17T02:52:26.617Z,4.72
2019-01-17T02:53:30.098Z,4.66
2019-01-17T02:54:35.795Z,4.61
2019-01-17T02:55:38.746Z,4.60
2019-01-17T02:56:42.216Z,4.64
2019-01-17T02:57:45.641Z,4.64
2019-01-17T02:58:49.138Z,4.60
2019-01-17T02:59:52.562Z,4.62
2019-01-17T03:00:56.012Z,4.66
2019-01-17T03:01:59.451Z,4.57
2019-01-17T03:03:02.869Z,4.63
2019-01-17T03:04:06.445Z,4.64
2019-01-17T03:05:10.017Z,4.59
2019-01-17T03:06:13.597Z,4.49
2019-01-17T03:07:17.113Z,4.53
2019-01-17T03:08:20.607Z,4.42
2019-01-17T03:09:24.097Z,4.51
2019-01-17T03:10:27.660Z,4.55
2019-01-17T03:11:31.169Z,4.65
2019-01-17T03:12:34.591Z,4.70
2019-01-17T03:13:38.092Z,4.75
2019-01-17T03:14:41.668Z,4.79
2019-01-17T03:15:45.152Z,4.77
2019-01-17T03:16:48.757Z,4.79
2019-01-17T03:17:52.239Z,4.81
2019-01-17T03:18:55.729Z,4.84
2019-01-17T03:19:59.220Z,4.91
2019-01-17T03:21:02.785Z,4.91
2019-01-17T03:22:06.228Z,4.95
2019-01-17T03:23:09.800Z,4.99
2019-01-17T03:24:13.243Z,5.12
2019-01-17T03:25:16.818Z,5.12
2019-01-17T03:26:20.268Z,5.14
2019-01-17T03:27:23.758Z,5.18
2019-01-17T03:28:27.263Z,5.17
2019-01-17T03:29:30.684Z,5.18
2019-01-17T03:30:34.246Z,5.22
2019-01-17T03:31:37.689Z,5.24
2019-01-17T03:32:41.257Z,5.24
2019-01-17T03:33:44.687Z,5.30
2019-01-17T03:34:48.109Z,5.32
2019-01-17T03:35:51.762Z,5.32
2019-01-17T03:36:55.208Z,5.37
2019-01-17T03:37:58.647Z,5.43
2019-01-17T03:39:02.146Z,5.37
2019-01-17T03:40:12.095Z,5.40
2019-01-17T03:41:15.604Z,5.39
2019-01-17T03:42:19.178Z,5.48
2019-01-17T03:43:22.674Z,5.54
2019-01-17T03:44:26.187Z,5.49
2019-01-17T03:45:29.598Z,5.50
2019-01-17T03:46:33.124Z,5.59
2019-01-17T03:47:36.570Z,5.60
2019-01-17T03:48:40.046Z,5.61
2019-01-17T03:49:43.491Z,5.59
2019-01-17T03:50:46.917Z,5.62
2019-01-17T03:51:50.366Z,5.67
2019-01-17T03:52:53.942Z,5.73
2019-01-17T03:53:57.435Z,5.74
2019-01-17T03:55:00.857Z,5.77
2019-01-17T03:56:04.421Z,5.80
2019-01-17T03:57:07.863Z,5.82
2019-01-17T03:58:11.399Z,5.78
2019-01-17T03:59:14.885Z,5.84
2019-01-17T04:00:19.551Z,5.84
2019-01-17T04:01:23.055Z,5.91
2019-01-17T04:02:26.641Z,5.99
2019-01-17T04:03:30.089Z,5.97
2019-01-17T04:04:33.535Z,5.95
2019-01-17T04:05:37.081Z,6.01
2019-01-17T04:06:40.572Z,6.00
2019-01-17T04:07:44.089Z,6.02
2019-01-17T04:08:47.549Z,6.02
2019-01-17T04:09:50.973Z,6.06
2019-01-17T04:10:54.376Z,6.05
2019-01-17T04:11:57.801Z,6.12
2019-01-17T04:13:01.265Z,6.11
2019-01-17T04:14:05.031Z,6.23
2019-01-17T04:15:10.492Z,6.19
2019-01-17T04:16:14.055Z,6.15
2019-01-17T04:17:17.564Z,6.19
2019-01-17T04:18:21.072Z,6.21
2019-01-17T04:19:24.626Z,6.22
2019-01-17T04:20:28.184Z,6.24
2019-01-17T04:21:31.674Z,6.26
2019-01-17T04:22:35.176Z,6.24
2019-01-17T04:23:38.640Z,6.23
2019-01-17T04:24:42.201Z,6.30
2019-01-17T04:25:45.692Z,6.26
2019-01-17T04:26:49.114Z,6.28
2019-01-17T04:27:52.537Z,6.24
2019-01-17T04:28:56.154Z,6.19
2019-01-17T04:29:59.581Z,6.24
2019-01-17T04:31:03.014Z,6.27
2019-01-17T04:32:06.571Z,6.26
2019-01-17T04:33:10.071Z,6.21
2019-01-17T04:34:13.516Z,6.25
2019-01-17T04:35:17.100Z,6.37
2019-01-17T04:36:20.523Z,6.39
2019-01-17T04:37:24.023Z,6.41
2019-01-17T04:38:27.464Z,6.39
2019-01-17T04:39:30.898Z,6.16
2019-01-17T04:40:34.324Z,6.24
2019-01-17T04:41:37.752Z,6.32
2019-01-17T04:42:41.321Z,6.37
2019-01-17T04:43:44.758Z,6.39
2019-01-17T04:44:48.184Z,6.36
2019-01-17T04:45:51.742Z,6.39
2019-01-17T04:46:55.169Z,6.41
2019-01-17T04:47:58.612Z,6.42
2019-01-17T04:49:02.061Z,6.49
2019-01-17T04:50:08.630Z,6.47
2019-01-17T04:51:12.131Z,6.43
2019-01-17T04:52:15.565Z,6.39
2019-01-17T04:53:19.073Z,6.39
2019-01-17T04:54:22.580Z,6.42
2019-01-17T04:55:26.086Z,6.46
2019-01-17T04:56:29.522Z,6.45
2019-01-17T04:57:32.955Z,6.40
2019-01-17T04:58:36.397Z,6.39
2019-01-17T04:59:39.851Z,6.47
2019-01-17T05:00:43.277Z,6.42
2019-01-17T05:01:46.769Z,6.37
2019-01-17T05:02:50.299Z,6.38
2019-01-17T05:03:54.020Z,6.38
2019-01-17T05:04:57.996Z,6.36
2019-01-17T05:06:01.418Z,6.40
2019-01-17T05:07:04.972Z,6.38
2019-01-17T05:08:10.358Z,6.42
2019-01-17T05:09:13.714Z,6.41
2019-01-17T05:10:17.612Z,6.39
2019-01-17T05:11:21.108Z,6.42
2019-01-17T05:12:24.544Z,6.41
2019-01-17T05:13:28.057Z,6.44
2019-01-17T05:14:31.493Z,6.43
2019-01-17T05:15:34.922Z,6.40
2019-01-17T05:16:38.344Z,6.42
2019-01-17T05:17:41.859Z,6.46
2019-01-17T05:18:45.310Z,6.43
2019-01-17T05:19:48.755Z,6.44
2019-01-17T05:20:52.185Z,6.49
2019-01-17T05:21:55.691Z,6.46
2019-01-17T05:22:59.194Z,6.47
2019-01-17T05:24:02.911Z,6.42
2019-01-17T05:25:12.366Z,6.44
2019-01-17T05:26:13.224Z,6.43
2019-01-17T05:27:16.647Z,6.47
2019-01-17T05:28:20.156Z,6.47
2019-01-17T05:29:23.653Z,6.43
2019-01-17T05:30:27.137Z,6.43
2019-01-17T05:31:30.568Z,6.40
2019-01-17T05:32:36.802Z,6.27
2019-01-17T05:33:39.371Z,6.44
2019-01-17T05:34:42.864Z,6.42
2019-01-17T05:35:46.296Z,6.38
2019-01-17T05:36:49.860Z,6.36
2019-01-17T05:37:53.327Z,6.39
2019-01-17T05:38:56.755Z,6.41
2019-01-17T05:40:00.259Z,6.43
2019-01-17T05:41:03.796Z,6.47
2019-01-17T05:42:07.282Z,6.45
2019-01-17T05:43:10.729Z,6.43
2019-01-17T05:44:14.240Z,6.43
2019-01-17T05:45:17.820Z,6.45
2019-01-17T05:46:21.264Z,6.45
2019-01-17T05:47:24.824Z,6.44
2019-01-17T05:48:28.349Z,6.41
2019-01-17T05:49:31.773Z,6.32
2019-01-17T05:50:35.276Z,6.32
2019-01-17T05:51:38.705Z,6.31
2019-01-17T05:52:42.271Z,6.35
2019-01-17T05:53:45.742Z,6.32
2019-01-17T05:54:49.166Z,6.37
2019-01-17T05:55:52.728Z,6.32
2019-01-17T05:56:56.168Z,6.39
2019-01-17T05:57:59.619Z,6.42
2019-01-17T05:59:03.059Z,6.41
2019-01-17T06:00:15.271Z,6.43
2019-01-17T06:01:18.801Z,6.44
2019-01-17T06:02:22.281Z,6.42
2019-01-17T06:03:25.724Z,6.43
2019-01-17T06:04:29.176Z,6.50
2019-01-17T06:05:32.665Z,6.47
2019-01-17T06:06:36.083Z,6.46
2019-01-17T06:07:39.651Z,6.43
2019-01-17T06:08:43.094Z,6.43
2019-01-17T06:09:46.607Z,6.46
2019-01-17T06:10:50.098Z,6.33
2019-01-17T06:11:53.551Z,6.30
2019-01-17T06:12:57.174Z,6.32
2019-01-17T06:14:00.604Z,6.32
2019-01-17T06:15:05.216Z,6.24
2019-01-17T06:16:08.886Z,6.21
2019-01-17T06:17:12.317Z,6.23
2019-01-17T06:18:15.810Z,6.18
2019-01-17T06:19:19.258Z,6.19
2019-01-17T06:20:22.805Z,6.22
2019-01-17T06:21:26.372Z,6.18
2019-01-17T06:22:29.904Z,6.17
2019-01-17T06:23:33.465Z,6.15
2019-01-17T06:24:36.984Z,6.14
2019-01-17T06:25:40.556Z,5.98
2019-01-17T06:26:43.982Z,6.14
2019-01-17T06:27:47.484Z,6.15
2019-01-17T06:28:50.944Z,6.08
2019-01-17T06:29:54.403Z,6.11
2019-01-17T06:30:57.829Z,6.11
2019-01-17T06:32:01.319Z,5.95
2019-01-17T06:33:05.084Z,5.85
2019-01-17T06:34:08.685Z,5.90
2019-01-17T06:35:12.462Z,5.90
2019-01-17T06:36:15.962Z,5.86
2019-01-17T06:37:19.466Z,5.92
2019-01-17T06:38:23.032Z,5.94
2019-01-17T06:39:26.471Z,5.96
2019-01-17T06:40:30.446Z,6.02
2019-01-17T06:41:33.956Z,6.05
2019-01-17T06:42:37.448Z,6.01
2019-01-17T06:43:41.079Z,5.92
2019-01-17T06:44:44.527Z,5.82
2019-01-17T06:45:47.950Z,5.81
2019-01-17T06:46:51.375Z,5.73
2019-01-17T06:47:54.804Z,5.74
2019-01-17T06:48:58.362Z,5.75
2019-01-17T06:50:01.818Z,5.73
2019-01-17T06:51:05.391Z,5.69
2019-01-17T06:52:08.872Z,5.68
2019-01-17T06:53:12.314Z,5.66
2019-01-17T06:54:15.748Z,5.67
2019-01-17T06:55:19.217Z,5.67
2019-01-17T06:56:22.657Z,5.68
2019-01-17T06:57:26.085Z,5.66
2019-01-17T06:58:29.513Z,5.64
2019-01-17T06:59:32.935Z,5.62
2019-01-17T07:00:36.383Z,5.62
2019-01-17T07:01:39.804Z,5.70
2019-01-17T07:02:43.649Z,5.71
2019-01-17T07:03:47.142Z,5.75
2019-01-17T07:04:50.585Z,5.74
2019-01-17T07:05:54.397Z,5.63
2019-01-17T07:06:57.897Z,5.66
2019-01-17T07:08:01.660Z,5.52
2019-01-17T07:09:07.791Z,5.49
2019-01-17T07:10:16.448Z,5.59
2019-01-17T07:11:19.967Z,5.63
2019-01-17T07:12:23.565Z,5.59
2019-01-17T07:13:27.665Z,5.57
2019-01-17T07:14:31.197Z,5.54
2019-01-17T07:15:34.926Z,5.49
2019-01-17T07:16:38.606Z,5.49
2019-01-17T07:17:42.382Z,5.43
2019-01-17T07:18:46.597Z,5.31
2019-01-17T07:19:50.273Z,5.31
2019-01-17T07:20:53.737Z,5.29
2019-01-17T07:21:57.183Z,5.34
2019-01-17T07:23:00.604Z,5.44
2019-01-17T07:24:04.272Z,5.48
2019-01-17T07:25:09.536Z,5.48
2019-01-17T07:26:13.051Z,5.55
2019-01-17T07:27:16.550Z,5.59
2019-01-17T07:28:19.991Z,5.44
2019-01-17T07:29:23.507Z,5.51
2019-01-17T07:30:27.018Z,5.57
2019-01-17T07:31:30.528Z,5.64
2019-01-17T07:32:34.129Z,5.63
2019-01-17T07:33:37.568Z,5.58
2019-01-17T07:34:41.006Z,5.61
2019-01-17T07:35:44.598Z,5.68
2019-01-17T07:36:48.333Z,5.72
2019-01-17T07:37:52.010Z,5.81
2019-01-17T07:38:55.479Z,5.82
2019-01-17T07:39:58.958Z,5.80
2019-01-17T07:41:02.502Z,5.69
2019-01-17T07:42:06.314Z,5.67
2019-01-17T07:43:10.030Z,5.74
2019-01-17T07:44:13.555Z,5.67
2019-01-17T07:45:20.116Z,5.67
2019-01-17T07:46:23.689Z,5.79
2019-01-17T07:47:27.490Z,5.84
2019-01-17T07:48:30.997Z,5.92
2019-01-17T07:49:35.443Z,5.82
2019-01-17T07:50:39.115Z,5.90
2019-01-17T07:51:42.604Z,5.85
2019-01-17T07:52:46.289Z,5.92
2019-01-17T07:53:49.725Z,5.89
2019-01-17T07:54:53.469Z,5.85
2019-01-17T07:56:00.422Z,5.93
2019-01-17T07:57:03.967Z,5.73
2019-01-17T07:58:07.496Z,5.80
2019-01-17T07:59:11.293Z,5.76
2019-01-17T08:00:20.654Z,5.87
2019-01-17T08:01:27.592Z,5.77
2019-01-17T08:02:31.160Z,5.79
2019-01-17T08:03:35.960Z,5.83
2019-01-17T08:04:40.858Z,5.96
2019-01-17T08:05:45.256Z,5.96
2019-01-17T08:06:48.790Z,5.86
2019-01-17T08:07:52.393Z,5.90
2019-01-17T08:08:59.115Z,6.05
2019-01-17T08:10:03.196Z,6.09
2019-01-17T08:11:06.956Z,6.00
2019-01-17T08:12:10.568Z,5.96
2019-01-17T08:13:14.671Z,5.89
2019-01-17T08:14:19.094Z,5.96
2019-01-17T08:15:23.064Z,6.05
2019-01-17T08:16:26.973Z,6.15
2019-01-17T08:17:32.160Z,6.16
2019-01-17T08:18:36.612Z,6.18
2019-01-17T08:19:40.915Z,6.25
2019-01-17T08:20:45.114Z,6.35
2019-01-17T08:21:48.599Z,6.34
2019-01-17T08:22:52.536Z,6.43
2019-01-17T08:23:56.480Z,6.50
2019-01-17T08:25:00.378Z,6.40
2019-01-17T08:26:04.474Z,6.40
2019-01-17T08:27:08.771Z,6.44
2019-01-17T08:28:12.646Z,6.42
2019-01-17T08:29:19.363Z,6.52
2019-01-17T08:30:25.479Z,6.49
2019-01-17T08:31:29.632Z,6.52
2019-01-17T08:32:33.836Z,6.54
2019-01-17T08:33:37.967Z,6.53
2019-01-17T08:34:42.972Z,6.53
2019-01-17T08:35:47.259Z,6.49
2019-01-17T08:36:54.203Z,6.41
2019-01-17T08:37:57.701Z,6.50
2019-01-17T08:39:02.072Z,6.57
2019-01-17T08:40:08.565Z,6.64
2019-01-17T08:41:12.115Z,6.56
2019-01-17T08:42:15.651Z,6.65
2019-01-17T08:43:19.282Z,6.68
2019-01-17T08:44:22.799Z,6.59
2019-01-17T08:45:26.451Z,6.65
2019-01-17T08:46:29.978Z,6.68
2019-01-17T08:47:33.388Z,6.67
2019-01-17T08:48:36.910Z,6.67
2019-01-17T08:49:40.401Z,6.71
2019-01-17T08:50:44.256Z,6.72
2019-01-17T08:51:47.787Z,6.76
2019-01-17T08:52:51.344Z,6.83
2019-01-17T08:53:56.590Z,6.90
2019-01-17T08:55:00.217Z,6.98
2019-01-17T08:56:04.024Z,7.02
2019-01-17T08:57:07.834Z,7.13
2019-01-17T08:58:11.647Z,7.14
2019-01-17T08:59:15.425Z,7.21
2019-01-17T09:00:21.967Z,7.24
2019-01-17T09:01:25.485Z,7.34
2019-01-17T09:02:28.991Z,7.30
2019-01-17T09:03:32.416Z,7.35
2019-01-17T09:04:36.006Z,7.43
2019-01-17T09:05:39.513Z,7.43
2019-01-17T09:06:42.934Z,7.54
2019-01-17T09:07:46.510Z,7.60
2019-01-17T09:08:49.932Z,7.67
2019-01-17T09:09:53.437Z,7.74
2019-01-17T09:10:56.870Z,7.79
2019-01-17T09:12:00.315Z,7.91
2019-01-17T09:13:03.983Z,7.96
2019-01-17T09:14:07.400Z,8.02
2019-01-17T09:15:13.651Z,8.05
2019-01-17T09:16:17.071Z,8.00
2019-01-17T09:17:20.589Z,8.03
2019-01-17T09:18:24.091Z,7.98
2019-01-17T09:19:27.607Z,7.89
2019-01-17T09:20:31.075Z,7.96
2019-01-17T09:21:34.522Z,8.05
2019-01-17T09:22:38.103Z,8.10
2019-01-17T09:23:41.547Z,8.07
2019-01-17T09:24:44.985Z,8.01
2019-01-17T09:25:48.413Z,8.08
2019-01-17T09:26:51.864Z,8.00
2019-01-17T09:27:55.473Z,7.98
2019-01-17T09:28:58.915Z,8.09
2019-01-17T09:30:02.407Z,8.15
2019-01-17T09:31:05.900Z,8.23
2019-01-17T09:32:09.401Z,8.24
2019-01-17T09:33:12.962Z,8.22
2019-01-17T09:34:16.380Z,8.26
2019-01-17T09:35:20.054Z,8.23
2019-01-17T09:36:23.646Z,8.25
2019-01-17T09:37:27.084Z,8.23
2019-01-17T09:38:30.577Z,8.21
2019-01-17T09:39:34.080Z,8.25
2019-01-17T09:40:37.510Z,8.24
2019-01-17T09:41:41.000Z,8.29
2019-01-17T09:42:44.516Z,8.29
2019-01-17T09:43:47.960Z,8.31
2019-01-17T09:44:51.383Z,8.34
2019-01-17T09:45:54.885Z,8.37
2019-01-17T09:46:58.376Z,8.39
2019-01-17T09:48:02.120Z,8.44
2019-01-17T09:49:05.568Z,8.48
2019-01-17T09:50:17.469Z,8.53
2019-01-17T09:51:20.895Z,8.54
2019-01-17T09:52:24.384Z,8.58
2019-01-17T09:53:27.904Z,8.57
2019-01-17T09:54:31.400Z,8.57
2019-01-17T09:55:34.859Z,8.40
2019-01-17T09:56:38.359Z,8.57
2019-01-17T09:57:41.868Z,8.57
2019-01-17T09:58:45.439Z,8.58
2019-01-17T09:59:49.112Z,8.61
2019-01-17T10:00:52.677Z,8.57
2019-01-17T10:01:56.093Z,8.54
2019-01-17T10:02:59.683Z,8.55
2019-01-17T10:04:03.114Z,8.54
2019-01-17T10:05:07.477Z,8.58
2019-01-17T10:06:10.983Z,8.57
2019-01-17T10:07:14.406Z,8.62
2019-01-17T10:08:17.857Z,8.64
2019-01-17T10:09:21.303Z,8.64
2019-01-17T10:10:25.865Z,8.66
2019-01-17T10:11:29.285Z,8.68
2019-01-17T10:12:32.789Z,8.71
2019-01-17T10:13:36.224Z,8.74
2019-01-17T10:14:39.712Z,8.68
2019-01-17T10:15:48.844Z,8.69
2019-01-17T10:16:53.612Z,8.70
2019-01-17T10:18:23.827Z,8.67
2019-01-17T10:19:51.389Z,8.71
2019-01-17T10:21:15.788Z,8.75
2019-01-17T10:22:25.146Z,8.76
2019-01-17T10:23:49.426Z,8.83
2019-01-17T10:25:07.438Z,8.82
2019-01-17T10:26:21.103Z,8.83
2019-01-17T10:27:27.778Z,8.87
2019-01-17T10:28:56.405Z,8.85
2019-01-17T10:30:20.670Z,8.90
2019-01-17T10:31:39.016Z,8.95
2019-01-17T10:32:51.343Z,8.97
2019-01-17T10:34:00.781Z,9.03
2019-01-17T10:35:18.375Z,9.05
2019-01-17T10:36:33.209Z,8.99
2019-01-17T10:37:39.688Z,8.97
2019-01-17T10:38:49.062Z,8.93
2019-01-17T10:39:55.591Z,8.91
2019-01-17T10:41:13.882Z,8.90
2019-01-17T10:42:38.438Z,8.88
2019-01-17T10:43:51.008Z,8.93
2019-01-17T10:45:00.248Z,9.03
2019-01-17T10:46:27.653Z,9.02
2019-01-17T10:47:51.654Z,8.98
2019-01-17T10:48:58.160Z,8.91
2019-01-17T10:50:22.360Z,8.93
2019-01-17T10:51:31.549Z,8.89
2019-01-17T10:52:40.589Z,8.88
2019-01-17T10:53:49.688Z,8.97
2019-01-17T10:55:23.260Z,9.02
2019-01-17T10:56:51.678Z,9.08
2019-01-17T10:58:15.963Z,9.07
2019-01-17T10:59:25.358Z,9.13
2019-01-17T11:00:40.658Z,9.17
2019-01-17T11:01:50.150Z,9.18
2019-01-17T11:03:02.455Z,9.11
2019-01-17T11:04:17.779Z,9.14
2019-01-17T11:05:24.331Z,9.14
2019-01-17T11:06:48.769Z,9.09
2019-01-17T11:08:04.270Z,9.12
2019-01-17T11:09:16.676Z,9.14
2019-01-17T11:10:45.712Z,9.22
2019-01-17T11:12:17.771Z,9.29
2019-01-17T11:13:30.224Z,9.34
2019-01-17T11:14:45.676Z,9.28
2019-01-17T11:16:06.790Z,9.25
2019-01-17T11:17:18.746Z,9.26
2019-01-17T11:18:25.301Z,9.30
2019-01-17T11:19:31.782Z,9.30
2019-01-17T11:20:50.312Z,9.32
2019-01-17T11:21:59.788Z,9.36
2019-01-17T11:23:14.860Z,9.71
2019-01-17T11:24:40.953Z,9.91
2019-01-17T11:25:53.417Z,9.93
2019-01-17T11:27:16.438Z,9.93
2019-01-17T11:28:34.820Z,9.85
2019-01-17T11:29:47.225Z,9.74
2019-01-17T11:30:56.201Z,9.74
2019-01-17T11:32:26.047Z,9.70
2019-01-17T11:33:41.458Z,9.57
2019-01-17T11:34:50.816Z,9.56
2019-01-17T11:36:09.109Z,9.49
2019-01-17T11:37:48.473Z,9.48
2019-01-17T11:39:17.455Z,9.48
2019-01-17T11:40:35.739Z,9.50
2019-01-17T11:41:42.232Z,9.49
2019-01-17T11:43:00.845Z,9.58
2019-01-17T11:44:10.111Z,9.53
2019-01-17T11:45:16.614Z,9.61
2019-01-17T11:46:31.986Z,9.59
2019-01-17T11:47:47.376Z,9.63
2019-01-17T11:49:02.564Z,9.67
2019-01-17T11:50:15.085Z,9.72
2019-01-17T11:51:29.765Z,9.65
2019-01-17T11:52:52.261Z,9.60
2019-01-17T11:54:04.518Z,9.61
2019-01-17T11:55:33.395Z,9.52
2019-01-17T11:56:42.463Z,9.55
2019-01-17T11:57:49.022Z,9.56
2019-01-17T11:59:01.343Z,9.53
2019-01-17T12:00:36.158Z,9.54
2019-01-17T12:02:09.566Z,9.59
2019-01-17T12:03:21.839Z,9.67
2019-01-17T12:04:34.526Z,9.68
2019-01-17T12:05:37.980Z,9.61
2019-01-17T12:06:41.523Z,9.55
2019-01-17T12:07:46.178Z,9.57
2019-01-17T12:08:49.716Z,9.49
2019-01-17T12:09:53.215Z,9.49
2019-01-17T12:10:56.704Z,9.50
2019-01-17T12:12:00.232Z,9.46
2019-01-17T12:13:03.822Z,9.49
2019-01-17T12:14:07.392Z,9.43
2019-01-17T12:15:11.032Z,9.49
2019-01-17T12:16:14.532Z,9.46
2019-01-17T12:17:18.223Z,9.46
2019-01-17T12:18:21.716Z,9.38
2019-01-17T12:19:25.254Z,9.36
2019-01-17T12:20:28.652Z,9.33
2019-01-17T12:21:32.732Z,9.29
2019-01-17T12:22:36.266Z,9.38
2019-01-17T12:23:39.693Z,9.39
2019-01-17T12:24:43.203Z,9.40
2019-01-17T12:25:46.647Z,9.44
2019-01-17T12:26:50.191Z,9.50
2019-01-17T12:27:53.585Z,9.52
2019-01-17T12:28:57.140Z,9.50
2019-01-17T12:30:00.740Z,9.52
2019-01-17T12:31:04.164Z,9.49
2019-01-17T12:32:07.681Z,9.48
2019-01-17T12:33:11.178Z,9.50
2019-01-17T12:34:14.621Z,9.55
2019-01-17T12:35:18.096Z,9.52
2019-01-17T12:36:21.640Z,9.53
2019-01-17T12:37:25.370Z,9.37
2019-01-17T12:38:28.725Z,9.32
2019-01-17T12:39:32.148Z,9.34
2019-01-17T12:40:35.684Z,9.32
2019-01-17T12:41:39.546Z,9.32
2019-01-17T12:42:43.113Z,9.20
2019-01-17T12:43:46.539Z,9.19
2019-01-17T12:44:50.040Z,9.11
2019-01-17T12:45:53.531Z,9.12
2019-01-17T12:46:57.114Z,9.12
2019-01-17T12:48:00.557Z,9.12
2019-01-17T12:49:04.253Z,9.09
2019-01-17T12:50:10.733Z,9.00
2019-01-17T12:51:14.243Z,9.12
2019-01-17T12:52:17.847Z,9.19
2019-01-17T12:53:21.300Z,9.14
2019-01-17T12:54:24.796Z,9.15
2019-01-17T12:55:28.346Z,9.15
2019-01-17T12:56:31.834Z,9.09
2019-01-17T12:57:35.353Z,9.02
2019-01-17T12:58:38.829Z,8.98
2019-01-17T12:59:42.321Z,9.00
2019-01-17T13:00:45.751Z,8.96
2019-01-17T13:01:49.309Z,9.03
2019-01-17T13:02:52.831Z,9.05
2019-01-17T13:03:56.430Z,9.03
2019-01-17T13:04:59.991Z,9.02
2019-01-17T13:06:03.478Z,9.04
2019-01-17T13:07:06.986Z,9.10
2019-01-17T13:08:10.449Z,9.00
2019-01-17T13:09:13.867Z,8.86
2019-01-17T13:10:18.687Z,8.84
2019-01-17T13:11:22.152Z,8.93
2019-01-17T13:12:25.804Z,8.83
2019-01-17T13:13:29.251Z,8.86
2019-01-17T13:14:32.822Z,8.95
2019-01-17T13:15:36.323Z,8.96
2019-01-17T13:16:39.851Z,8.94
2019-01-17T13:17:43.441Z,8.95
2019-01-17T13:18:46.897Z,8.97
2019-01-17T13:19:50.323Z,8.86
2019-01-17T13:20:53.856Z,8.93
2019-01-17T13:21:57.453Z,8.84
2019-01-17T13:23:01.051Z,8.85
2019-01-17T13:24:04.921Z,8.81
2019-01-17T13:25:17.361Z,8.81
2019-01-17T13:26:20.886Z,8.63
2019-01-17T13:27:24.514Z,8.64
2019-01-17T13:28:27.962Z,8.58
2019-01-17T13:29:31.557Z,8.55
2019-01-17T13:30:35.040Z,8.46
2019-01-17T13:31:38.533Z,8.47
2019-01-17T13:32:42.035Z,8.47
2019-01-17T13:33:45.658Z,8.52
2019-01-17T13:34:49.090Z,8.43
2019-01-17T13:35:52.579Z,8.41
2019-01-17T13:36:56.006Z,8.47
2019-01-17T13:37:59.433Z,8.46
2019-01-17T13:39:02.947Z,8.43
2019-01-17T13:40:11.926Z,8.43
2019-01-17T13:41:15.508Z,8.44
2019-01-17T13:42:20.949Z,8.52
2019-01-17T13:43:24.310Z,8.47
2019-01-17T13:44:27.766Z,8.48
2019-01-17T13:45:31.273Z,8.46
2019-01-17T13:46:34.732Z,8.45
2019-01-17T13:47:38.228Z,8.42
2019-01-17T13:48:41.727Z,8.36
2019-01-17T13:49:45.322Z,8.38
2019-01-17T13:50:48.753Z,8.43
2019-01-17T13:51:52.190Z,8.42
2019-01-17T13:52:55.684Z,8.39
2019-01-17T13:53:59.242Z,8.40
2019-01-17T13:55:02.756Z,8.40
2019-01-17T13:56:06.335Z,8.40
2019-01-17T13:57:09.835Z,8.40
2019-01-17T13:58:13.265Z,8.36
2019-01-17T13:59:16.697Z,8.39
2019-01-17T14:00:24.819Z,8.42
2019-01-17T14:01:28.229Z,8.41
2019-01-17T14:02:31.734Z,8.40
2019-01-17T14:03:35.155Z,8.36
2019-01-17T14:04:38.655Z,8.29
2019-01-17T14:05:42.231Z,8.25
2019-01-17T14:06:45.821Z,8.17
2019-01-17T14:07:50.478Z,8.12
2019-01-17T14:08:53.920Z,8.10
2019-01-17T14:09:57.418Z,8.11
2019-01-17T14:11:00.859Z,8.18
2019-01-17T14:12:04.434Z,8.19
2019-01-17T14:13:07.932Z,8.07
2019-01-17T14:14:11.450Z,8.05
2019-01-17T14:15:23.834Z,8.01
2019-01-17T14:16:27.356Z,7.90
2019-01-17T14:17:30.784Z,7.92
2019-01-17T14:18:34.400Z,7.88
2019-01-17T14:19:37.862Z,7.94
2019-01-17T14:20:41.378Z,7.84
2019-01-17T14:21:44.886Z,7.85
2019-01-17T14:22:48.470Z,7.90
2019-01-17T14:23:52.076Z,8.00
2019-01-17T14:24:55.507Z,7.96
2019-01-17T14:25:59.027Z,7.97
2019-01-17T14:27:02.527Z,7.99
2019-01-17T14:28:06.032Z,7.99
2019-01-17T14:29:09.658Z,7.98
2019-01-17T14:30:30.431Z,7.96
2019-01-17T14:31:33.867Z,8.00
2019-01-17T14:32:37.362Z,8.01
2019-01-17T14:33:41.031Z,8.01
2019-01-17T14:34:44.457Z,8.02
2019-01-17T14:35:48.001Z,7.93
2019-01-17T14:36:51.414Z,7.92
2019-01-17T14:37:54.836Z,7.78
2019-01-17T14:38:58.261Z,7.81
2019-01-17T14:40:01.751Z,7.81
2019-01-17T14:41:05.279Z,7.83